createdAt,value
2023-03-16T00:04:52.465Z,22.80
2023-03-16T00:29:47.983Z,22.80
2023-03-16T00:32:18.485Z,22.70
2023-03-16T00:34:46.634Z,22.80
2023-03-16T00:37:15.518Z,22.90
2023-03-16T00:39:43.750Z,23.00
2023-03-16T00:42:12.236Z,23.20
2023-03-16T00:54:37.176Z,24.20
2023-03-16T00:57:05.296Z,24.40
2023-03-16T00:59:41.624Z,24.50
2023-03-16T01:02:10.011Z,24.70
2023-03-16T01:07:08.284Z,24.60
2023-03-16T01:09:37.066Z,24.40
2023-03-16T01:24:34.530Z,24.60
2023-03-16T01:29:39.742Z,24.30
2023-03-16T01:32:08.004Z,24.60
2023-03-16T01:34:36.263Z,24.20
2023-03-16T01:37:06.907Z,24.30
2023-03-16T01:42:03.622Z,24.10
2023-03-16T01:44:50.060Z,23.90
2023-03-16T01:47:19.144Z,23.80
2023-03-16T01:49:48.329Z,24.00
2023-03-16T03:14:59.777Z,23.50
2023-03-16T03:17:30.331Z,22.90
2023-03-16T03:20:02.178Z,23.00
2023-03-16T03:22:30.476Z,22.80
2023-03-16T03:24:58.410Z,22.80
2023-03-16T03:27:26.506Z,22.80
2023-03-16T03:32:23.173Z,23.30
2023-03-16T03:44:46.921Z,22.70
2023-03-16T03:49:46.130Z,22.60
2023-03-16T03:59:44.522Z,22.60
2023-03-16T04:02:14.053Z,22.50
2023-03-16T04:04:42.416Z,22.50
2023-03-16T04:07:10.773Z,22.50
2023-03-16T04:09:38.739Z,22.50
2023-03-16T04:12:08.715Z,22.50
2023-03-16T04:14:36.879Z,22.60
2023-03-16T04:17:06.770Z,22.50
2023-03-16T04:19:34.858Z,22.40
2023-03-16T04:22:03.538Z,22.40
2023-03-16T04:24:34.296Z,22.40
2023-03-16T04:27:02.763Z,22.40
2023-03-16T04:29:32.107Z,22.30
2023-03-16T04:32:03.900Z,22.30
2023-03-16T04:34:34.487Z,22.30
2023-03-16T04:37:02.859Z,22.30
2023-03-16T04:39:30.845Z,22.30
2023-03-16T04:41:58.810Z,22.30
2023-03-16T04:44:26.949Z,22.20
2023-03-16T04:46:56.278Z,22.20
2023-03-16T04:49:24.839Z,22.20
2023-03-16T04:51:52.780Z,22.30
2023-03-16T04:54:21.857Z,22.20
2023-03-16T04:56:49.813Z,22.20
2023-03-16T04:59:20.583Z,21.70
2023-03-16T05:01:48.607Z,22.20
2023-03-16T05:04:19.793Z,22.30
2023-03-16T05:06:48.010Z,22.20
2023-03-16T05:14:13.878Z,22.10
2023-03-16T05:16:43.020Z,22.10
2023-03-16T05:19:10.975Z,22.10
2023-03-16T05:21:41.271Z,22.00
2023-03-16T05:24:10.495Z,22.00
2023-03-16T05:26:38.427Z,22.00
2023-03-16T05:29:06.532Z,22.00
2023-03-16T05:31:36.268Z,22.00
2023-03-16T05:34:04.516Z,22.00
2023-03-16T05:36:32.550Z,21.90
2023-03-16T05:39:02.017Z,21.90
2023-03-16T05:41:30.368Z,21.90
2023-03-16T05:43:59.334Z,21.90
2023-03-16T05:46:29.032Z,22.60
2023-03-16T05:48:57.016Z,22.20
2023-03-16T05:51:26.735Z,22.20
2023-03-16T05:53:56.689Z,22.40
2023-03-16T05:56:26.658Z,22.50
2023-03-16T05:58:55.928Z,23.30
2023-03-16T06:03:53.794Z,23.30
2023-03-16T06:06:22.582Z,23.60
2023-03-16T06:28:43.658Z,24.60
2023-03-16T06:58:37.015Z,25.80
2023-03-16T07:01:05.348Z,25.90
2023-03-16T07:03:34.154Z,26.00
2023-03-16T07:06:03.532Z,26.10
2023-03-16T07:08:31.566Z,26.20
2023-03-16T07:10:59.650Z,26.20
2023-03-16T07:13:28.979Z,26.20
2023-03-16T07:15:56.987Z,26.20
2023-03-16T07:18:26.220Z,26.10
2023-03-16T07:20:54.417Z,26.10
2023-03-16T07:23:25.475Z,26.00
2023-03-16T07:25:53.694Z,25.90
2023-03-16T07:28:21.899Z,25.80
2023-03-16T07:31:03.003Z,25.70
2023-03-16T07:33:33.173Z,25.70
2023-03-16T07:36:05.266Z,25.60
2023-03-16T07:41:04.016Z,25.40
2023-03-16T07:43:31.997Z,25.30
2023-03-16T07:46:01.490Z,25.30
2023-03-16T07:48:29.520Z,25.30
2023-03-16T07:50:59.954Z,25.30
2023-03-16T07:55:57.637Z,25.00
2023-03-16T07:58:25.572Z,25.50
2023-03-16T08:05:51.430Z,25.60
2023-03-16T08:15:50.605Z,25.60
2023-03-16T08:18:18.624Z,25.50
2023-03-16T08:20:46.972Z,25.40
2023-03-16T08:23:15.552Z,25.40
2023-03-16T08:35:51.317Z,25.10
2023-03-16T08:38:20.206Z,25.20
2023-03-16T08:40:48.891Z,25.30
2023-03-16T08:43:21.922Z,25.40
2023-03-16T08:45:52.397Z,25.40
2023-03-16T08:48:21.693Z,25.60
2023-03-16T08:50:49.703Z,25.70
2023-03-16T08:53:17.753Z,25.80
2023-03-16T08:55:46.776Z,25.90
2023-03-16T08:58:15.403Z,26.00
2023-03-16T09:00:46.835Z,26.00
2023-03-16T09:05:45.328Z,25.90
2023-03-16T09:08:13.749Z,25.90
2023-03-16T09:13:10.762Z,25.80
2023-03-16T09:15:42.909Z,25.80
2023-03-16T09:20:42.661Z,25.70
2023-03-16T09:23:13.482Z,25.60
2023-03-16T09:25:41.506Z,25.60
2023-03-16T09:28:11.315Z,25.50
2023-03-16T09:30:40.964Z,25.50
2023-03-16T09:35:55.900Z,25.40
2023-03-16T09:38:25.160Z,25.30
2023-03-16T09:40:59.338Z,25.30
2023-03-16T09:43:34.712Z,25.30
2023-03-16T09:46:07.593Z,25.20
2023-03-16T09:48:37.256Z,25.20
2023-03-16T09:51:14.508Z,25.20
2023-03-16T09:53:42.545Z,25.10
2023-03-16T09:56:14.172Z,25.20
2023-03-16T09:58:42.615Z,25.20
2023-03-16T10:01:14.339Z,25.30
2023-03-16T10:04:08.545Z,25.30
2023-03-16T10:06:40.601Z,25.50
2023-03-16T10:09:27.160Z,26.70
2023-03-16T10:12:05.713Z,25.80
2023-03-16T10:14:38.871Z,25.90
2023-03-16T14:15:00.846Z,24.40
2023-03-16T14:20:03.055Z,24.20
2023-03-16T14:32:58.768Z,24.20
2023-03-16T14:35:28.721Z,24.20
2023-03-16T14:37:57.384Z,24.20
2023-03-16T14:40:28.447Z,24.20
2023-03-16T14:42:59.710Z,24.20
2023-03-16T14:45:31.431Z,24.10
2023-03-16T14:48:03.630Z,24.20
2023-03-16T14:50:32.171Z,24.10
2023-03-16T14:53:03.158Z,24.20
2023-03-16T14:55:33.263Z,24.10
2023-03-16T14:58:02.578Z,24.10
2023-03-16T15:00:33.029Z,24.10
2023-03-16T15:03:05.083Z,24.10
2023-03-16T15:05:36.284Z,23.90
2023-03-16T15:08:06.625Z,24.10
2023-03-16T15:10:35.312Z,24.20
2023-03-16T15:13:16.625Z,24.10
2023-03-16T15:15:46.040Z,24.10
2023-03-16T15:18:14.054Z,24.10
2023-03-16T15:20:43.290Z,24.10
2023-03-16T15:23:13.906Z,24.10
2023-03-16T15:28:15.955Z,24.50
2023-03-16T15:30:44.684Z,24.10
2023-03-16T15:35:41.085Z,24.10
2023-03-16T15:38:14.054Z,24.00
2023-03-16T15:40:42.660Z,24.00
2023-03-16T15:43:14.219Z,24.00
2023-03-16T15:45:44.597Z,24.00
2023-03-16T15:48:14.713Z,24.00
2023-03-16T15:50:45.999Z,24.00
2023-03-16T15:53:30.876Z,24.00
2023-03-16T15:56:02.868Z,23.90
2023-03-16T16:01:08.948Z,23.90
2023-03-16T16:03:38.168Z,24.00
2023-03-16T16:06:11.048Z,23.90
2023-03-16T16:08:39.060Z,24.20
2023-03-16T16:11:10.197Z,23.90
2023-03-16T16:13:44.510Z,23.90
2023-03-16T16:16:14.864Z,23.80
2023-03-16T16:21:18.132Z,24.30
2023-03-16T16:23:49.430Z,22.90
2023-03-16T16:26:41.581Z,23.80
2023-03-16T16:31:46.201Z,23.70
2023-03-16T16:34:14.829Z,23.80
2023-03-16T16:41:46.943Z,23.70
2023-03-16T16:46:46.842Z,23.70
2023-03-16T16:51:45.279Z,23.60
2023-03-16T16:54:15.909Z,23.60
2023-03-16T17:04:25.404Z,23.60
2023-03-16T17:06:55.435Z,23.70
2023-03-16T17:09:24.947Z,23.60
2023-03-16T17:11:56.071Z,23.60
2023-03-16T17:14:27.552Z,23.60
2023-03-16T17:16:57.045Z,23.60
2023-03-16T17:19:27.094Z,23.60
2023-03-16T17:21:56.305Z,23.60
2023-03-16T17:24:26.836Z,23.60
2023-03-16T17:26:56.122Z,23.60
2023-03-16T17:29:25.894Z,23.50
2023-03-16T17:31:53.935Z,23.50
2023-03-16T17:34:24.517Z,23.10
2023-03-16T17:36:52.804Z,23.50
2023-03-16T17:39:21.732Z,23.60
2023-03-16T17:46:48.516Z,23.50
2023-03-16T17:49:19.950Z,23.40
2023-03-16T17:51:51.459Z,23.40
2023-03-16T17:54:20.881Z,23.40
2023-03-16T17:56:49.051Z,23.40
2023-03-16T17:59:18.074Z,23.40
2023-03-16T18:01:47.068Z,23.40
2023-03-16T18:04:17.207Z,23.40
2023-03-16T18:06:47.043Z,23.30
2023-03-16T18:09:16.527Z,23.60
2023-03-16T18:11:47.534Z,23.50
2023-03-16T18:14:22.680Z,23.50
2023-03-16T18:16:53.137Z,23.50
2023-03-16T18:19:23.788Z,23.50
2023-03-16T18:21:53.661Z,23.50
2023-03-16T18:24:26.952Z,23.60
2023-03-16T18:26:55.325Z,23.60
2023-03-16T18:29:24.102Z,23.60
2023-03-16T18:31:53.244Z,23.40
2023-03-16T18:34:23.846Z,23.60
2023-03-16T18:36:52.537Z,23.60
2023-03-16T18:39:22.582Z,23.60
2023-03-16T18:41:51.083Z,23.50
2023-03-16T18:44:19.873Z,23.50
2023-03-16T18:46:48.003Z,23.50
2023-03-16T18:49:18.268Z,23.40
2023-03-16T18:51:49.145Z,23.50
2023-03-16T18:54:22.537Z,23.50
2023-03-16T18:56:52.858Z,23.50
2023-03-16T18:59:22.054Z,23.50
2023-03-16T19:01:50.383Z,23.50
2023-03-16T19:04:21.765Z,23.50
2023-03-16T19:06:57.940Z,23.50
2023-03-16T19:09:27.042Z,23.60
2023-03-16T19:11:56.421Z,23.50
2023-03-16T19:14:28.240Z,23.50
2023-03-16T19:16:56.854Z,23.50
2023-03-16T19:19:25.101Z,23.70
2023-03-16T19:21:53.783Z,23.50
2023-03-16T19:24:23.389Z,23.40
2023-03-16T19:26:55.668Z,23.40
2023-03-16T19:29:28.592Z,23.40
2023-03-16T19:31:57.289Z,23.40
2023-03-16T19:34:25.508Z,23.50
2023-03-16T19:36:53.847Z,23.40
2023-03-16T19:39:22.333Z,23.40
2023-03-16T19:41:52.904Z,23.40
2023-03-16T19:44:22.245Z,23.40
2023-03-16T19:46:51.899Z,23.40
2023-03-16T19:49:21.770Z,23.40
2023-03-16T19:51:51.223Z,23.40
2023-03-16T19:54:24.946Z,23.40
2023-03-16T19:56:53.610Z,23.30
2023-03-16T19:59:21.768Z,23.30
2023-03-16T20:01:52.475Z,23.30
2023-03-16T20:04:24.129Z,23.30
2023-03-16T20:06:53.539Z,23.40
2023-03-16T20:09:23.453Z,23.30
